Terminal Aerodrome Forecast
Issued by NWS

Home | Current Version | Previous Version | Text Only | Print | Product List | Glossary On
Versions: 1 2 3 4 5 6 7 8 9 10 11 12 13 14
491
FTUS43 KLSX 240530
TAFUIN
TAF
KUIN 240530Z 2406/2506 17010KT P6SM BKN250
     FM241100 17006KT P6SM SCT040 BKN120
     FM241600 20008KT P6SM VCSH SCT040 BKN120
     FM242000 19012KT P6SM SCT040 BKN250=

USA.gov is the U.S. government's official web portal to all federal, state and local government web resources and services.